createdAt,value
2018-12-06T00:02:10.498Z,7.67
2018-12-06T00:04:39.003Z,7.87
2018-12-06T00:07:07.344Z,8.58
2018-12-06T00:09:35.755Z,8.58
2018-12-06T00:12:04.051Z,7.72
2018-12-06T00:14:32.320Z,7.50
2018-12-06T00:17:00.723Z,8.18
2018-12-06T00:19:29.126Z,9.63
2018-12-06T00:21:57.605Z,9.25
2018-12-06T00:24:26.007Z,9.73
2018-12-06T00:26:54.756Z,8.53
2018-12-06T00:29:23.100Z,9.08
2018-12-06T00:31:51.355Z,8.10
2018-12-06T00:34:19.587Z,9.20
2018-12-06T00:36:47.995Z,8.80
2018-12-06T00:39:16.298Z,8.45
2018-12-06T00:41:44.556Z,8.90
2018-12-06T00:44:12.932Z,8.33
2018-12-06T00:46:41.274Z,9.57
2018-12-06T00:49:09.621Z,8.25
2018-12-06T00:51:37.836Z,9.10
2018-12-06T00:54:06.127Z,9.45
2018-12-06T00:56:34.425Z,9.03
2018-12-06T00:59:02.841Z,9.25
2018-12-06T01:01:31.279Z,7.65
2018-12-06T01:03:59.690Z,10.45
2018-12-06T01:06:28.050Z,7.97
2018-12-06T01:08:56.250Z,7.90
2018-12-06T01:11:25.006Z,7.90
2018-12-06T01:13:53.354Z,8.10
2018-12-06T01:16:21.665Z,7.37
2018-12-06T01:18:49.904Z,8.10
2018-12-06T01:21:18.216Z,7.95
2018-12-06T01:23:46.548Z,9.05
2018-12-06T01:26:14.863Z,7.97
2018-12-06T01:28:43.140Z,8.10
2018-12-06T01:31:11.341Z,7.30
2018-12-06T01:33:39.607Z,7.78
2018-12-06T01:36:07.792Z,7.73
2018-12-06T01:38:36.052Z,7.55
2018-12-06T01:41:04.422Z,7.60
2018-12-06T01:43:32.878Z,8.68
2018-12-06T01:46:01.260Z,8.30
2018-12-06T01:48:29.929Z,7.92
2018-12-06T01:50:58.283Z,9.10
2018-12-06T01:53:26.606Z,10.03
2018-12-06T01:55:54.934Z,8.65
2018-12-06T01:58:23.278Z,8.93
2018-12-06T02:00:51.554Z,9.90
2018-12-06T02:03:20.001Z,7.67
2018-12-06T02:05:48.508Z,8.40
2018-12-06T02:08:16.736Z,8.70
2018-12-06T02:10:45.005Z,7.45
2018-12-06T02:13:13.262Z,7.20
2018-12-06T02:15:41.579Z,8.03
2018-12-06T02:18:09.844Z,8.58
2018-12-06T02:20:38.240Z,8.03
2018-12-06T02:23:06.562Z,7.50
2018-12-06T02:25:34.897Z,8.57
2018-12-06T02:28:03.276Z,7.78
2018-12-06T02:30:31.672Z,7.17
2018-12-06T02:33:00.014Z,8.03
2018-12-06T02:35:28.461Z,7.35
2018-12-06T02:37:56.788Z,7.80
2018-12-06T02:40:25.099Z,7.30
2018-12-06T02:42:53.633Z,8.73
2018-12-06T02:45:21.911Z,8.80
2018-12-06T02:47:50.294Z,8.58
2018-12-06T02:50:18.570Z,7.40
2018-12-06T02:52:46.919Z,8.00
2018-12-06T02:55:15.196Z,7.85
2018-12-06T02:57:43.443Z,7.70
2018-12-06T03:00:12.060Z,8.20
2018-12-06T03:02:40.259Z,7.22
2018-12-06T03:05:08.623Z,7.67
2018-12-06T03:07:37.042Z,8.05
2018-12-06T03:10:05.698Z,8.08
2018-12-06T03:12:33.889Z,6.40
2018-12-06T03:15:02.255Z,6.30
2018-12-06T03:17:30.877Z,7.10
2018-12-06T03:19:59.134Z,8.75
2018-12-06T03:22:27.394Z,8.30
2018-12-06T03:24:55.681Z,7.42
2018-12-06T03:27:23.946Z,8.00
2018-12-06T03:29:52.310Z,8.00
2018-12-06T03:32:20.641Z,7.00
2018-12-06T03:34:49.090Z,6.30
2018-12-06T03:37:17.415Z,7.13
2018-12-06T03:39:45.860Z,8.63
2018-12-06T03:42:14.441Z,7.70
2018-12-06T03:44:42.821Z,7.97
2018-12-06T03:47:11.315Z,8.10
2018-12-06T03:49:39.595Z,7.60
2018-12-06T03:52:08.051Z,7.97
2018-12-06T03:54:36.376Z,7.78
2018-12-06T03:57:04.716Z,7.10
2018-12-06T03:59:32.982Z,7.00
2018-12-06T04:02:01.329Z,7.10
2018-12-06T04:04:29.653Z,7.40
2018-12-06T04:06:57.957Z,8.10
2018-12-06T04:09:26.481Z,7.05
2018-12-06T04:11:54.700Z,6.55
2018-12-06T04:14:23.131Z,7.00
2018-12-06T04:16:51.427Z,6.05
2018-12-06T04:19:19.753Z,6.03
2018-12-06T04:21:47.989Z,6.55
2018-12-06T04:24:16.196Z,6.83
2018-12-06T04:27:15.423Z,6.25
2018-12-06T04:29:43.716Z,6.72
2018-12-06T04:32:12.951Z,7.20
2018-12-06T04:34:42.255Z,5.65
2018-12-06T04:37:10.946Z,6.67
2018-12-06T04:39:39.374Z,5.90
2018-12-06T04:42:07.674Z,6.55
2018-12-06T04:44:36.018Z,6.30
2018-12-06T04:47:04.419Z,6.25
2018-12-06T04:49:32.738Z,5.55
2018-12-06T04:52:01.470Z,5.78
2018-12-06T04:54:30.250Z,6.80
2018-12-06T04:56:59.074Z,6.17
2018-12-06T04:59:27.464Z,6.20
2018-12-06T05:01:55.883Z,6.00
2018-12-06T05:04:24.270Z,6.40
2018-12-06T05:06:52.475Z,5.95
2018-12-06T05:09:20.783Z,6.30
2018-12-06T05:11:49.366Z,6.22
2018-12-06T05:14:18.360Z,6.60
2018-12-06T05:16:47.118Z,5.40
2018-12-06T05:19:15.764Z,6.20
2018-12-06T05:21:44.275Z,5.90
2018-12-06T05:24:12.573Z,6.08
2018-12-06T05:26:41.084Z,6.70
2018-12-06T05:29:09.581Z,6.75
2018-12-06T05:31:38.041Z,6.20
2018-12-06T05:34:06.972Z,6.70
2018-12-06T05:36:35.275Z,6.60
2018-12-06T05:39:05.487Z,7.08
2018-12-06T05:41:35.006Z,9.33
2018-12-06T05:44:03.596Z,6.78
2018-12-06T05:46:32.066Z,7.20
2018-12-06T05:49:00.486Z,7.62
2018-12-06T05:51:28.746Z,6.67
2018-12-06T05:53:57.066Z,6.17
2018-12-06T05:56:25.649Z,5.75
2018-12-06T05:58:54.503Z,7.35
2018-12-06T06:01:22.773Z,6.03
2018-12-06T06:03:51.506Z,6.70
2018-12-06T06:06:20.441Z,7.37
2018-12-06T06:08:49.667Z,6.70
2018-12-06T06:11:18.047Z,7.45
2018-12-06T06:13:47.303Z,6.10
2018-12-06T06:16:15.543Z,5.95
2018-12-06T06:18:43.947Z,6.00
2018-12-06T06:21:12.335Z,5.42
2018-12-06T06:23:40.704Z,6.78
2018-12-06T06:26:09.099Z,6.22
2018-12-06T06:28:37.412Z,6.20
2018-12-06T06:31:06.997Z,6.62
2018-12-06T06:33:35.229Z,6.03
2018-12-06T06:36:03.525Z,6.33
2018-12-06T06:38:31.819Z,6.80
2018-12-06T06:41:00.255Z,5.72
2018-12-06T06:43:28.575Z,7.85
2018-12-06T06:45:56.877Z,5.80
2018-12-06T06:48:25.327Z,6.58
2018-12-06T06:50:53.560Z,5.53
2018-12-06T06:53:21.798Z,5.45
2018-12-06T06:55:50.111Z,6.75
2018-12-06T06:58:18.416Z,5.80
2018-12-06T07:00:47.053Z,5.20
2018-12-06T07:03:15.697Z,6.28
2018-12-06T07:05:43.997Z,6.45
2018-12-06T07:08:12.268Z,6.55
2018-12-06T07:10:40.547Z,5.50
2018-12-06T07:13:08.992Z,6.60
2018-12-06T07:15:37.454Z,6.00
2018-12-06T07:18:06.574Z,6.37
2018-12-06T07:20:35.518Z,7.30
2018-12-06T07:23:03.844Z,6.20
2018-12-06T07:25:32.124Z,6.90
2018-12-06T07:28:00.588Z,6.70
2018-12-06T07:30:29.077Z,7.85
2018-12-06T07:32:57.478Z,6.33
2018-12-06T07:35:26.624Z,8.03
2018-12-06T07:37:55.014Z,7.05
2018-12-06T07:40:25.934Z,6.50
2018-12-06T07:42:57.740Z,9.80
2018-12-06T07:45:28.440Z,6.62
2018-12-06T07:47:56.721Z,12.23
2018-12-06T07:50:25.048Z,9.70
2018-12-06T07:52:53.649Z,7.10
2018-12-06T07:55:22.395Z,7.20
2018-12-06T07:57:50.701Z,10.18
2018-12-06T08:00:19.004Z,6.33
2018-12-06T08:02:47.315Z,6.95
2018-12-06T08:05:15.974Z,6.80
2018-12-06T08:07:48.921Z,10.80
2018-12-06T08:10:17.390Z,7.95
2018-12-06T08:12:50.030Z,5.70
2018-12-06T08:15:18.375Z,7.35
2018-12-06T08:17:46.809Z,7.75
2018-12-06T08:20:15.178Z,10.53
2018-12-06T08:22:43.662Z,8.48
2018-12-06T08:25:16.503Z,8.05
2018-12-06T08:27:47.194Z,8.65
2018-12-06T08:30:15.538Z,7.25
2018-12-06T08:32:43.927Z,5.97
2018-12-06T08:35:12.346Z,8.78
2018-12-06T08:37:40.642Z,14.30
2018-12-06T08:40:09.148Z,8.23
2018-12-06T08:44:06.771Z,7.65
2018-12-06T08:46:35.019Z,6.62
2018-12-06T08:49:06.480Z,9.13
2018-12-06T08:51:34.689Z,6.40
2018-12-06T08:54:03.091Z,7.60
2018-12-06T08:56:31.362Z,7.65
2018-12-06T08:58:59.598Z,6.83
2018-12-06T09:01:31.651Z,7.27
2018-12-06T09:04:06.381Z,7.95
2018-12-06T09:06:34.797Z,7.83
2018-12-06T09:09:03.850Z,6.92
2018-12-06T09:11:36.417Z,6.87
2018-12-06T09:14:05.069Z,10.98
2018-12-06T09:16:33.356Z,6.90
2018-12-06T09:19:01.589Z,5.80
2018-12-06T09:21:30.021Z,6.60
2018-12-06T09:25:29.135Z,6.83
2018-12-06T09:27:57.368Z,7.65
2018-12-06T09:30:29.108Z,6.47
2018-12-06T09:32:57.432Z,7.33
2018-12-06T09:35:28.131Z,5.25
2018-12-06T09:37:56.540Z,6.50
2018-12-06T09:40:25.136Z,7.80
2018-12-06T09:42:55.685Z,7.05
2018-12-06T09:45:24.034Z,11.07
2018-12-06T09:47:53.904Z,7.17
2018-12-06T09:50:22.320Z,7.00
2018-12-06T09:52:55.546Z,6.93
2018-12-06T09:55:29.542Z,6.97
2018-12-06T09:57:58.094Z,7.70
2018-12-06T10:00:26.430Z,7.47
2018-12-06T10:02:55.045Z,7.30
2018-12-06T10:05:23.315Z,7.87
2018-12-06T10:07:57.650Z,8.20
2018-12-06T10:10:31.263Z,6.62
2018-12-06T10:13:02.737Z,6.50
2018-12-06T10:15:31.963Z,7.20
2018-12-06T10:18:04.767Z,8.37
2018-12-06T10:20:33.295Z,6.90
2018-12-06T10:23:01.808Z,6.50
2018-12-06T10:25:30.065Z,8.00
2018-12-06T10:28:00.305Z,7.20
2018-12-06T10:30:28.552Z,7.40
2018-12-06T10:32:56.921Z,8.15
2018-12-06T10:35:25.217Z,7.05
2018-12-06T10:40:35.785Z,9.70
2018-12-06T10:43:04.150Z,8.30
2018-12-06T10:45:32.886Z,7.47
2018-12-06T10:48:01.212Z,6.45
2018-12-06T10:50:29.584Z,7.20
2018-12-06T10:52:57.824Z,7.47
2018-12-06T10:55:26.139Z,5.70
2018-12-06T10:57:54.377Z,10.00
2018-12-06T11:00:28.166Z,5.87
2018-12-06T11:03:06.763Z,7.35
2018-12-06T11:05:40.382Z,6.97
2018-12-06T11:08:09.870Z,7.00
2018-12-06T11:10:39.029Z,7.78
2018-12-06T11:13:07.357Z,7.10
2018-12-06T11:15:35.637Z,8.60
2018-12-06T11:18:10.039Z,7.20
2018-12-06T11:20:38.499Z,7.70
2018-12-06T11:23:07.420Z,8.60
2018-12-06T11:25:35.737Z,9.25
2018-12-06T11:28:03.982Z,8.90
2018-12-06T11:30:36.270Z,9.20
2018-12-06T11:33:09.805Z,8.70
2018-12-06T11:35:38.194Z,8.45
2018-12-06T11:38:06.544Z,9.68
2018-12-06T11:40:34.859Z,8.70
2018-12-06T11:43:03.202Z,9.80
2018-12-06T11:45:31.569Z,9.93
2018-12-06T11:47:59.829Z,7.60
2018-12-06T11:50:28.190Z,9.10
2018-12-06T11:52:56.414Z,11.53
2018-12-06T11:55:24.887Z,8.40
2018-12-06T11:57:53.186Z,9.03
2018-12-06T12:00:21.544Z,9.20
2018-12-06T12:02:49.989Z,8.75
2018-12-06T12:05:18.407Z,9.60
2018-12-06T12:07:46.808Z,6.70
2018-12-06T12:10:15.210Z,6.58
2018-12-06T12:12:43.707Z,6.28
2018-12-06T12:15:12.051Z,7.10
2018-12-06T12:17:40.277Z,7.25
2018-12-06T12:20:08.529Z,7.70
2018-12-06T12:22:37.089Z,7.10
2018-12-06T12:25:06.119Z,6.90
2018-12-06T12:27:34.785Z,5.78
2018-12-06T12:30:03.145Z,7.17
2018-12-06T12:32:31.424Z,6.90
2018-12-06T12:34:59.714Z,7.70
2018-12-06T12:37:28.041Z,7.67
2018-12-06T12:39:57.513Z,6.90
2018-12-06T12:42:25.807Z,7.72
2018-12-06T12:44:54.125Z,8.65
2018-12-06T12:47:22.461Z,8.40
2018-12-06T12:49:50.688Z,9.68
2018-12-06T12:52:19.372Z,10.03
2018-12-06T12:54:47.597Z,8.20
2018-12-06T12:57:16.336Z,9.15
2018-12-06T12:59:46.743Z,7.90
2018-12-06T13:02:15.047Z,8.50
2018-12-06T13:04:43.404Z,8.80
2018-12-06T13:07:13.040Z,8.15
2018-12-06T13:09:41.522Z,6.65
2018-12-06T13:12:09.814Z,7.60
2018-12-06T13:14:38.310Z,7.25
2018-12-06T13:17:07.277Z,7.72
2018-12-06T13:19:35.629Z,6.67
2018-12-06T13:22:05.042Z,7.37
2018-12-06T13:24:33.734Z,6.78
2018-12-06T13:27:02.365Z,7.30
2018-12-06T13:29:30.742Z,7.15
2018-12-06T13:31:59.756Z,7.00
2018-12-06T13:34:28.045Z,8.50
2018-12-06T13:36:56.325Z,6.53
2018-12-06T13:39:24.705Z,7.60
2018-12-06T13:41:53.074Z,7.80
2018-12-06T13:44:21.580Z,8.05
2018-12-06T13:46:50.032Z,7.45
2018-12-06T13:49:23.496Z,9.18
2018-12-06T13:51:51.768Z,18.45
2018-12-06T13:54:26.740Z,8.30
2018-12-06T13:56:52.645Z,9.38
2018-12-06T13:59:21.204Z,8.70
2018-12-06T14:01:49.594Z,8.75
2018-12-06T14:04:18.154Z,9.25
2018-12-06T14:06:46.416Z,9.15
2018-12-06T14:09:14.698Z,8.90
2018-12-06T14:11:43.352Z,8.73
2018-12-06T14:14:11.623Z,8.03
2018-12-06T14:16:40.038Z,8.40
2018-12-06T14:19:08.365Z,7.90
2018-12-06T14:21:38.637Z,8.65
2018-12-06T14:24:08.503Z,7.60
2018-12-06T14:26:37.836Z,7.60
2018-12-06T14:29:06.123Z,8.40
2018-12-06T14:31:34.699Z,8.43
2018-12-06T14:34:03.107Z,8.68
2018-12-06T14:36:31.458Z,9.83
2018-12-06T14:38:59.791Z,9.30
2018-12-06T14:41:28.127Z,9.40
2018-12-06T14:43:56.803Z,9.98
2018-12-06T14:46:25.073Z,10.45
2018-12-06T14:48:53.358Z,10.90
2018-12-06T14:51:21.580Z,10.00
2018-12-06T14:53:49.895Z,10.23
2018-12-06T14:56:18.335Z,10.18
2018-12-06T14:58:46.755Z,11.57
2018-12-06T15:01:15.213Z,10.40
2018-12-06T15:03:43.527Z,11.78
2018-12-06T15:06:11.823Z,11.30
2018-12-06T15:08:40.238Z,10.48
2018-12-06T15:11:08.656Z,9.15
2018-12-06T15:13:37.115Z,9.38
2018-12-06T15:16:11.607Z,8.68
2018-12-06T15:18:41.454Z,9.50
2018-12-06T15:21:19.623Z,10.38
2018-12-06T15:23:48.342Z,9.58
2018-12-06T15:26:16.578Z,10.23
2018-12-06T15:28:44.800Z,10.35
2018-12-06T15:31:13.208Z,9.63
2018-12-06T15:33:41.665Z,10.78
2018-12-06T15:36:14.260Z,10.30
2018-12-06T15:38:42.559Z,10.18
2018-12-06T15:41:11.553Z,9.90
2018-12-06T15:43:39.827Z,10.85
2018-12-06T15:46:08.420Z,11.53
2018-12-06T15:48:36.852Z,11.30
2018-12-06T15:51:05.943Z,12.37
2018-12-06T15:53:34.270Z,12.10
2018-12-06T15:56:02.752Z,11.93
2018-12-06T15:58:31.151Z,12.10
2018-12-06T16:00:59.720Z,12.65
2018-12-06T16:03:28.034Z,12.65
2018-12-06T16:05:56.793Z,11.90
2018-12-06T16:08:25.184Z,12.40
2018-12-06T16:10:53.552Z,16.12
2018-12-06T16:13:21.895Z,14.23
2018-12-06T16:15:51.837Z,13.95
2018-12-06T16:18:20.113Z,16.77
2018-12-06T16:20:48.513Z,18.12
2018-12-06T16:23:16.766Z,16.77
2018-12-06T16:25:45.531Z,16.62
2018-12-06T16:28:13.836Z,17.62
2018-12-06T16:30:43.211Z,16.70
2018-12-06T16:33:11.819Z,19.70
2018-12-06T16:35:40.263Z,19.23
2018-12-06T16:38:08.630Z,17.70
2018-12-06T16:40:37.081Z,17.77
2018-12-06T16:43:05.379Z,18.40
2018-12-06T16:45:33.887Z,17.20
2018-12-06T16:48:02.503Z,21.30
2018-12-06T16:50:31.067Z,19.27
2018-12-06T16:52:59.374Z,19.23
2018-12-06T16:55:27.731Z,22.53
2018-12-06T16:57:56.000Z,18.17
2018-12-06T17:00:26.780Z,20.82
2018-12-06T17:02:55.185Z,19.50
2018-12-06T17:05:24.758Z,19.57
2018-12-06T17:07:53.145Z,23.55
2018-12-06T17:10:21.555Z,20.08
2018-12-06T17:12:50.052Z,17.77
2018-12-06T17:15:18.294Z,18.30
2018-12-06T17:17:46.609Z,15.78
2018-12-06T17:20:14.874Z,18.23
2018-12-06T17:22:43.862Z,18.17
2018-12-06T17:25:12.454Z,19.02
2018-12-06T17:27:40.810Z,19.42
2018-12-06T17:30:09.867Z,17.85
2018-12-06T17:32:38.172Z,18.90
2018-12-06T17:35:06.680Z,18.25
2018-12-06T17:37:35.040Z,17.25
2018-12-06T17:40:03.919Z,19.42
2018-12-06T17:42:32.790Z,19.57
2018-12-06T17:45:01.155Z,18.50
2018-12-06T17:47:31.496Z,21.10
2018-12-06T17:49:59.988Z,18.27
2018-12-06T17:52:28.423Z,17.52
2018-12-06T17:54:57.434Z,17.70
2018-12-06T17:57:25.933Z,24.43
2018-12-06T17:59:54.285Z,21.87
2018-12-06T18:02:23.282Z,19.53
2018-12-06T18:04:54.672Z,19.75
2018-12-06T18:07:23.237Z,16.95
2018-12-06T18:09:52.432Z,18.75
2018-12-06T18:12:21.505Z,17.82
2018-12-06T18:14:50.251Z,18.82
2018-12-06T18:17:19.884Z,20.17
2018-12-06T18:19:49.098Z,17.80
2018-12-06T18:22:17.850Z,16.15
2018-12-06T18:24:46.141Z,18.32
2018-12-06T18:27:14.430Z,18.23
2018-12-06T18:29:42.755Z,19.67
2018-12-06T18:32:11.154Z,18.92
2018-12-06T18:34:39.423Z,19.40
2018-12-06T18:37:08.909Z,21.77
2018-12-06T18:39:37.511Z,20.62
2018-12-06T18:42:06.071Z,22.02
2018-12-06T18:44:34.622Z,22.52
2018-12-06T18:47:02.959Z,21.20
2018-12-06T18:49:31.467Z,19.75
2018-12-06T18:51:59.841Z,19.87
2018-12-06T18:54:28.219Z,18.50
2018-12-06T18:57:00.938Z,18.70
2018-12-06T18:59:29.390Z,18.77
2018-12-06T19:01:59.390Z,18.45
2018-12-06T19:04:27.732Z,19.15
2018-12-06T19:06:56.151Z,20.65
2018-12-06T19:09:26.186Z,19.05
2018-12-06T19:11:54.778Z,19.20
2018-12-06T19:14:23.134Z,20.10
2018-12-06T19:16:51.523Z,18.73
2018-12-06T19:19:19.808Z,19.27
2018-12-06T19:21:48.252Z,23.05
2018-12-06T19:24:16.520Z,20.35
2018-12-06T19:26:45.033Z,18.70
2018-12-06T19:29:16.625Z,19.67
2018-12-06T19:31:44.862Z,26.40
2018-12-06T19:34:13.177Z,21.57
2018-12-06T19:36:41.764Z,19.77
2018-12-06T19:39:11.208Z,19.67
2018-12-06T19:41:39.629Z,19.10
2018-12-06T19:44:08.154Z,20.12
2018-12-06T19:46:36.592Z,21.65
2018-12-06T19:49:06.932Z,20.43
2018-12-06T19:51:35.390Z,20.25
2018-12-06T19:54:03.912Z,19.87
2018-12-06T19:56:33.893Z,18.50
2018-12-06T19:59:02.244Z,18.70
2018-12-06T20:01:31.976Z,19.90
2018-12-06T20:04:00.541Z,18.77
2018-12-06T20:06:28.990Z,19.60
2018-12-06T20:08:57.454Z,18.57
2018-12-06T20:11:25.685Z,19.27
2018-12-06T20:13:54.733Z,20.40
2018-12-06T20:16:23.187Z,21.60
2018-12-06T20:18:51.797Z,19.83
2018-12-06T20:21:25.589Z,19.15
2018-12-06T20:23:53.908Z,18.90
2018-12-06T20:26:22.167Z,22.07
2018-12-06T20:28:50.430Z,18.05
2018-12-06T20:31:19.750Z,15.88
2018-12-06T20:33:48.078Z,16.50
2018-12-06T20:36:16.571Z,17.65
2018-12-06T20:38:47.519Z,17.77
2018-12-06T20:41:15.864Z,19.82
2018-12-06T20:43:44.185Z,20.82
2018-12-06T20:46:12.709Z,19.90
2018-12-06T20:48:41.122Z,19.55
2018-12-06T20:51:09.453Z,20.90
2018-12-06T20:53:37.853Z,22.10
2018-12-06T20:56:06.277Z,23.55
2018-12-06T20:58:34.733Z,22.52
2018-12-06T21:01:03.144Z,24.30
2018-12-06T21:03:31.478Z,23.67
2018-12-06T21:05:59.824Z,23.52
2018-12-06T21:08:28.328Z,25.15
2018-12-06T21:10:56.719Z,25.90
2018-12-06T21:13:25.273Z,27.35
2018-12-06T21:15:53.516Z,26.50
2018-12-06T21:18:22.609Z,26.95
2018-12-06T21:20:51.123Z,24.63
2018-12-06T21:23:19.484Z,22.47
2018-12-06T21:25:47.984Z,22.48
2018-12-06T21:28:16.238Z,24.95
2018-12-06T21:30:44.833Z,22.22
2018-12-06T21:33:13.187Z,23.27
2018-12-06T21:35:44.842Z,23.15
2018-12-06T21:38:13.410Z,23.85
2018-12-06T21:40:41.677Z,22.50
2018-12-06T21:43:10.310Z,22.52
2018-12-06T21:45:38.797Z,21.50
2018-12-06T21:48:08.182Z,22.20
2018-12-06T21:50:36.861Z,20.65
2018-12-06T21:53:05.157Z,21.40
2018-12-06T21:55:33.472Z,23.05
2018-12-06T21:58:01.726Z,23.62
2018-12-06T22:00:30.213Z,23.65
2018-12-06T22:02:58.746Z,22.52
2018-12-06T22:05:27.181Z,21.55
2018-12-06T22:07:55.624Z,24.87
2018-12-06T22:10:23.994Z,24.67
2018-12-06T22:12:52.273Z,24.80
2018-12-06T22:15:20.502Z,24.60
2018-12-06T22:17:48.813Z,24.80
2018-12-06T22:20:17.139Z,24.47
2018-12-06T22:22:45.452Z,26.67
2018-12-06T22:25:13.807Z,24.70
2018-12-06T22:27:42.010Z,24.55
2018-12-06T22:30:11.728Z,25.00
2018-12-06T22:32:40.468Z,24.95
2018-12-06T22:35:08.807Z,24.77
2018-12-06T22:37:37.990Z,23.57
2018-12-06T22:40:07.009Z,23.80
2018-12-06T22:42:35.365Z,19.50
2018-12-06T22:46:11.253Z,23.50
2018-12-06T22:48:39.629Z,22.25
2018-12-06T22:51:07.974Z,24.05
2018-12-06T22:53:36.390Z,23.98
2018-12-06T22:56:04.952Z,26.02
2018-12-06T22:58:33.279Z,23.38
2018-12-06T23:01:02.225Z,23.20
2018-12-06T23:03:30.789Z,20.97
2018-12-06T23:05:59.175Z,20.75
2018-12-06T23:08:27.496Z,21.23
2018-12-06T23:10:55.775Z,22.25
2018-12-06T23:13:24.035Z,20.65
2018-12-06T23:15:52.426Z,20.85
2018-12-06T23:18:20.670Z,18.92
2018-12-06T23:20:49.049Z,20.10
2018-12-06T23:23:17.773Z,17.92
2018-12-06T23:25:46.143Z,19.55
2018-12-06T23:28:14.523Z,17.73
2018-12-06T23:30:42.994Z,19.07
2018-12-06T23:33:11.237Z,18.40
2018-12-06T23:35:39.633Z,17.82
2018-12-06T23:38:07.977Z,16.00
2018-12-06T23:40:36.287Z,14.95
2018-12-06T23:43:04.803Z,17.07
2018-12-06T23:45:33.078Z,16.45
2018-12-06T23:48:01.394Z,16.05
2018-12-06T23:50:29.822Z,17.48
2018-12-06T23:52:58.211Z,17.50
2018-12-06T23:55:26.722Z,16.40
2018-12-06T23:57:55.086Z,17.37
